createdAt,value
2019-03-23T00:02:14.475Z,6.57
2019-03-23T00:04:42.893Z,6.80
2019-03-23T00:07:11.278Z,6.80
2019-03-23T00:09:39.630Z,6.83
2019-03-23T00:12:08.085Z,6.73
2019-03-23T00:14:36.431Z,6.69
2019-03-23T00:17:04.951Z,6.46
2019-03-23T00:19:33.311Z,6.36
2019-03-23T00:22:01.698Z,6.26
2019-03-23T00:24:30.048Z,6.22
2019-03-23T00:26:58.429Z,6.20
2019-03-23T00:29:26.783Z,6.35
2019-03-23T00:31:55.158Z,6.34
2019-03-23T00:34:23.506Z,6.42
2019-03-23T00:36:51.916Z,6.44
2019-03-23T00:39:20.271Z,6.24
2019-03-23T00:41:49.145Z,6.38
2019-03-23T00:44:17.507Z,6.20
2019-03-23T00:46:45.895Z,6.19
2019-03-23T00:49:14.242Z,6.08
2019-03-23T00:51:42.623Z,6.18
2019-03-23T00:54:10.976Z,5.86
2019-03-23T00:56:39.366Z,5.72
2019-03-23T00:59:07.723Z,5.72
2019-03-23T01:01:36.108Z,5.81
2019-03-23T01:04:04.582Z,5.91
2019-03-23T01:06:32.910Z,6.15
2019-03-23T01:09:01.331Z,6.07
2019-03-23T01:11:29.712Z,6.12
2019-03-23T01:13:58.063Z,5.86
2019-03-23T01:16:26.726Z,5.92
2019-03-23T01:18:55.070Z,6.03
2019-03-23T01:21:23.458Z,5.77
2019-03-23T01:23:51.806Z,5.90
2019-03-23T01:26:20.189Z,5.92
2019-03-23T01:28:48.535Z,5.93
2019-03-23T01:31:16.923Z,5.88
2019-03-23T01:33:45.271Z,5.86
2019-03-23T01:36:13.653Z,5.92
2019-03-23T01:38:42.005Z,5.81
2019-03-23T01:41:10.384Z,5.79
2019-03-23T01:43:38.737Z,5.77
2019-03-23T01:46:07.123Z,5.60
2019-03-23T01:48:35.475Z,5.54
2019-03-23T01:51:03.856Z,5.60
2019-03-23T01:53:32.205Z,5.60
2019-03-23T01:56:00.581Z,5.74
2019-03-23T01:58:28.926Z,5.66
2019-03-23T02:00:57.314Z,5.58
2019-03-23T02:03:25.734Z,5.15
2019-03-23T02:05:54.113Z,4.86
2019-03-23T02:08:22.664Z,5.28
2019-03-23T02:10:51.045Z,5.54
2019-03-23T02:13:19.657Z,5.42
2019-03-23T02:15:48.106Z,5.62
2019-03-23T02:18:16.452Z,5.44
2019-03-23T02:20:44.910Z,5.45
2019-03-23T02:23:13.267Z,5.48
2019-03-23T02:25:41.664Z,5.19
2019-03-23T02:28:10.455Z,5.09
2019-03-23T02:30:38.890Z,5.28
2019-03-23T02:33:07.589Z,5.62
2019-03-23T02:35:36.015Z,5.35
2019-03-23T02:38:04.463Z,5.40
2019-03-23T02:40:32.819Z,5.35
2019-03-23T02:43:01.210Z,5.23
2019-03-23T02:45:30.480Z,5.26
2019-03-23T02:47:59.784Z,5.10
2019-03-23T02:50:28.203Z,5.16
2019-03-23T02:52:56.586Z,5.24
2019-03-23T02:55:24.939Z,5.37
2019-03-23T02:57:53.318Z,5.41
2019-03-23T03:00:21.680Z,5.31
2019-03-23T03:02:50.059Z,5.25
2019-03-23T03:05:18.503Z,5.41
2019-03-23T03:07:46.926Z,5.08
2019-03-23T03:10:36.463Z,4.78
2019-03-23T03:13:04.841Z,5.12
2019-03-23T03:15:33.191Z,5.45
2019-03-23T03:18:01.570Z,5.17
2019-03-23T03:20:29.915Z,5.03
2019-03-23T03:22:58.363Z,5.19
2019-03-23T03:25:26.714Z,5.08
2019-03-23T03:27:55.102Z,5.09
2019-03-23T03:30:23.499Z,4.99
2019-03-23T03:32:51.924Z,4.81
2019-03-23T03:35:20.270Z,4.75
2019-03-23T03:37:56.441Z,4.90
2019-03-23T03:40:18.799Z,4.88
2019-03-23T03:42:47.180Z,5.16
2019-03-23T03:45:24.077Z,4.84
2019-03-23T03:47:52.515Z,4.90
2019-03-23T03:50:20.866Z,5.02
2019-03-23T03:52:49.332Z,4.62
2019-03-23T03:55:17.665Z,4.54
2019-03-23T03:57:46.131Z,4.67
2019-03-23T04:00:14.891Z,4.64
2019-03-23T04:02:43.276Z,4.57
2019-03-23T04:05:11.709Z,4.42
2019-03-23T04:07:40.069Z,4.79
2019-03-23T04:10:09.879Z,4.67
2019-03-23T04:12:38.242Z,4.56
2019-03-23T04:15:08.836Z,4.54
2019-03-23T04:17:37.485Z,4.57
2019-03-23T04:20:08.131Z,4.57
2019-03-23T04:22:37.273Z,4.52
2019-03-23T04:25:07.543Z,4.72
2019-03-23T04:27:35.994Z,4.78
2019-03-23T04:30:06.297Z,4.78
2019-03-23T04:32:34.827Z,4.85
2019-03-23T04:35:03.502Z,4.70
2019-03-23T04:37:31.882Z,4.63
2019-03-23T04:40:00.280Z,4.59
2019-03-23T04:42:28.611Z,4.46
2019-03-23T04:44:56.966Z,4.35
2019-03-23T04:47:25.457Z,4.57
2019-03-23T04:49:53.767Z,4.33
2019-03-23T04:52:22.150Z,3.99
2019-03-23T04:54:50.507Z,4.28
2019-03-23T04:57:18.892Z,4.43
2019-03-23T04:59:47.240Z,4.41
2019-03-23T05:02:15.621Z,4.06
2019-03-23T05:04:43.988Z,4.35
2019-03-23T05:07:12.353Z,4.37
2019-03-23T05:09:40.708Z,4.38
2019-03-23T05:12:09.090Z,4.25
2019-03-23T05:14:37.437Z,4.33
2019-03-23T05:17:05.892Z,4.33
2019-03-23T05:19:34.235Z,3.92
2019-03-23T05:22:02.616Z,3.87
2019-03-23T05:24:30.965Z,3.83
2019-03-23T05:26:59.417Z,3.97
2019-03-23T05:29:27.835Z,3.95
2019-03-23T05:31:56.223Z,4.13
2019-03-23T05:34:24.571Z,4.04
2019-03-23T05:36:52.959Z,4.23
2019-03-23T05:39:21.301Z,4.09
2019-03-23T05:41:49.685Z,3.95
2019-03-23T05:44:18.033Z,4.12
2019-03-23T05:46:46.389Z,4.11
2019-03-23T05:49:14.769Z,3.78
2019-03-23T05:51:43.121Z,3.84
2019-03-23T05:54:11.759Z,3.96
2019-03-23T05:56:40.319Z,4.37
2019-03-23T05:59:08.704Z,4.30
2019-03-23T06:01:37.136Z,4.50
2019-03-23T06:04:07.761Z,4.37
2019-03-23T06:06:36.446Z,4.34
2019-03-23T06:09:06.735Z,4.35
2019-03-23T06:11:35.154Z,4.36
2019-03-23T06:14:03.612Z,4.17
2019-03-23T06:16:31.960Z,3.84
2019-03-23T06:19:00.339Z,4.26
2019-03-23T06:21:28.689Z,4.22
2019-03-23T06:23:57.065Z,4.44
2019-03-23T06:26:25.653Z,4.29
2019-03-23T06:28:54.536Z,4.53
2019-03-23T06:31:23.214Z,4.49
2019-03-23T06:33:51.598Z,4.36
2019-03-23T06:36:19.948Z,4.49
2019-03-23T06:38:48.327Z,4.66
2019-03-23T06:41:16.678Z,4.59
2019-03-23T06:43:45.065Z,4.69
2019-03-23T06:46:13.406Z,4.83
2019-03-23T06:48:41.791Z,4.96
2019-03-23T06:51:10.145Z,4.98
2019-03-23T06:53:38.525Z,5.11
2019-03-23T06:56:06.879Z,5.14
2019-03-23T06:58:35.261Z,5.03
2019-03-23T07:01:03.694Z,5.26
2019-03-23T07:03:33.981Z,5.47
2019-03-23T07:06:05.583Z,5.45
2019-03-23T07:08:35.697Z,5.31
2019-03-23T07:11:04.334Z,5.64
2019-03-23T07:13:32.795Z,5.72
2019-03-23T07:16:01.148Z,5.64
2019-03-23T07:18:29.529Z,5.68
2019-03-23T07:20:57.948Z,5.69
2019-03-23T07:23:26.336Z,5.72
2019-03-23T07:25:54.683Z,5.74
2019-03-23T07:28:23.068Z,5.95
2019-03-23T07:30:51.510Z,6.04
2019-03-23T07:33:19.876Z,6.04
2019-03-23T07:35:48.228Z,6.13
2019-03-23T07:38:16.604Z,6.07
2019-03-23T07:40:44.955Z,6.17
2019-03-23T07:43:13.426Z,6.22
2019-03-23T07:45:41.769Z,6.16
2019-03-23T07:48:10.154Z,6.08
2019-03-23T07:50:39.217Z,6.31
2019-03-23T07:53:08.179Z,6.59
2019-03-23T07:55:38.530Z,6.59
2019-03-23T07:58:09.710Z,6.54
2019-03-23T08:00:40.893Z,6.63
2019-03-23T08:03:09.506Z,6.69
2019-03-23T08:05:39.235Z,6.77
2019-03-23T08:08:08.867Z,6.99
2019-03-23T08:10:37.915Z,7.15
2019-03-23T08:13:07.001Z,7.14
2019-03-23T08:15:35.981Z,7.10
2019-03-23T08:18:04.477Z,7.08
2019-03-23T08:20:32.879Z,7.20
2019-03-23T08:23:01.224Z,7.39
2019-03-23T08:25:29.616Z,7.39
2019-03-23T08:27:57.969Z,7.46
2019-03-23T08:30:27.432Z,7.57
2019-03-23T08:32:55.784Z,7.61
2019-03-23T08:35:24.241Z,7.65
2019-03-23T08:37:52.869Z,7.77
2019-03-23T08:40:21.318Z,7.82
2019-03-23T08:42:49.667Z,7.95
2019-03-23T08:45:18.051Z,8.09
2019-03-23T08:47:46.400Z,8.07
2019-03-23T08:50:15.019Z,8.11
2019-03-23T08:52:43.375Z,8.10
2019-03-23T08:55:11.827Z,8.14
2019-03-23T08:57:41.417Z,8.19
2019-03-23T09:00:10.113Z,8.26
2019-03-23T09:02:38.458Z,8.36
2019-03-23T09:05:07.007Z,8.42
2019-03-23T09:07:35.360Z,8.45
2019-03-23T09:10:06.748Z,8.48
2019-03-23T09:12:35.095Z,8.59
2019-03-23T09:15:04.785Z,8.67
2019-03-23T09:17:33.174Z,8.68
2019-03-23T09:20:01.523Z,8.74
2019-03-23T09:22:29.908Z,8.75
2019-03-23T09:24:58.258Z,8.81
2019-03-23T09:27:26.719Z,8.87
2019-03-23T09:29:55.064Z,8.86
2019-03-23T09:32:23.744Z,8.86
2019-03-23T09:34:52.234Z,8.96
2019-03-23T09:37:20.687Z,9.16
2019-03-23T09:39:49.107Z,9.24
2019-03-23T09:42:17.650Z,9.22
2019-03-23T09:44:46.002Z,9.25
2019-03-23T09:47:14.379Z,9.21
2019-03-23T09:49:42.729Z,9.61
2019-03-23T09:52:11.114Z,9.49
2019-03-23T09:54:39.601Z,9.37
2019-03-23T09:57:07.984Z,9.32
2019-03-23T09:59:36.553Z,9.46
2019-03-23T10:02:05.008Z,9.49
2019-03-23T10:04:33.355Z,9.81
2019-03-23T10:07:01.735Z,9.99
2019-03-23T10:09:30.157Z,9.73
2019-03-23T10:11:59.334Z,9.62
2019-03-23T10:14:27.656Z,9.70
2019-03-23T10:16:56.044Z,9.69
2019-03-23T10:19:24.561Z,9.65
2019-03-23T10:21:53.449Z,9.72
2019-03-23T10:24:21.875Z,9.79
2019-03-23T10:26:52.153Z,9.82
2019-03-23T10:29:20.336Z,9.88
2019-03-23T10:31:48.707Z,10.39
2019-03-23T10:34:17.338Z,10.45
2019-03-23T10:36:45.790Z,10.16
2019-03-23T10:39:14.301Z,10.21
2019-03-23T10:41:42.663Z,10.20
2019-03-23T10:44:11.116Z,10.86
2019-03-23T10:46:41.007Z,10.72
2019-03-23T10:49:09.465Z,10.66
2019-03-23T10:51:37.889Z,10.44
2019-03-23T10:54:06.350Z,10.36
2019-03-23T10:56:34.787Z,10.64
2019-03-23T10:59:03.473Z,10.85
2019-03-23T11:01:31.993Z,11.39
2019-03-23T11:04:00.594Z,11.16
2019-03-23T11:06:28.939Z,10.87
2019-03-23T11:08:57.965Z,11.92
2019-03-23T11:11:26.315Z,12.03
2019-03-23T11:13:54.708Z,11.92
2019-03-23T11:16:23.131Z,11.75
2019-03-23T11:18:51.518Z,11.55
2019-03-23T11:21:19.946Z,11.53
2019-03-23T11:23:48.326Z,11.42
2019-03-23T11:26:16.754Z,12.57
2019-03-23T11:28:45.147Z,12.39
2019-03-23T11:31:13.649Z,12.06
2019-03-23T11:33:42.103Z,11.99
2019-03-23T11:36:10.602Z,11.77
2019-03-23T11:38:38.995Z,12.94
2019-03-23T11:41:07.412Z,12.49
2019-03-23T11:43:35.797Z,12.56
2019-03-23T11:46:04.225Z,13.18
2019-03-23T11:48:32.613Z,12.63
2019-03-23T11:51:00.968Z,12.63
2019-03-23T11:53:29.373Z,12.28
2019-03-23T11:55:57.717Z,12.46
2019-03-23T11:58:26.067Z,12.31
2019-03-23T12:00:54.539Z,12.58
2019-03-23T12:03:23.086Z,12.33
2019-03-23T12:05:51.541Z,11.88
2019-03-23T12:08:19.898Z,12.27
2019-03-23T12:10:48.663Z,12.28
2019-03-23T12:13:17.319Z,12.86
2019-03-23T12:15:45.783Z,12.11
2019-03-23T12:18:15.621Z,12.34
2019-03-23T12:20:44.193Z,12.67
2019-03-23T12:23:12.608Z,13.21
2019-03-23T12:25:41.135Z,13.42
2019-03-23T12:28:09.562Z,13.08
2019-03-23T12:30:37.946Z,12.55
2019-03-23T12:33:06.508Z,13.12
2019-03-23T12:35:34.905Z,12.77
2019-03-23T12:38:03.327Z,13.22
2019-03-23T12:40:31.716Z,13.13
2019-03-23T12:43:00.205Z,13.05
2019-03-23T12:45:28.663Z,13.04
2019-03-23T12:47:57.088Z,12.86
2019-03-23T12:50:25.552Z,13.31
2019-03-23T12:52:53.909Z,13.08
2019-03-23T12:55:22.370Z,12.84
2019-03-23T12:57:50.723Z,12.78
2019-03-23T13:00:19.250Z,12.85
2019-03-23T13:02:47.753Z,12.77
2019-03-23T13:05:16.280Z,12.72
2019-03-23T13:07:44.683Z,13.19
2019-03-23T13:10:14.275Z,13.16
2019-03-23T13:12:42.734Z,13.03
2019-03-23T13:15:12.925Z,13.40
2019-03-23T13:17:41.320Z,14.00
2019-03-23T13:20:10.424Z,13.82
2019-03-23T13:22:38.765Z,14.25
2019-03-23T13:25:09.033Z,14.22
2019-03-23T13:27:37.604Z,14.08
2019-03-23T13:30:09.091Z,14.57
2019-03-23T13:32:37.482Z,14.72
2019-03-23T13:35:05.910Z,14.13
2019-03-23T13:37:34.298Z,14.39
2019-03-23T13:40:02.651Z,14.63
2019-03-23T13:42:31.033Z,14.61
2019-03-23T13:44:59.390Z,14.48
2019-03-23T13:47:27.848Z,14.20
2019-03-23T13:49:56.200Z,14.53
2019-03-23T13:52:24.670Z,14.14
2019-03-23T13:54:53.021Z,14.03
2019-03-23T13:57:21.409Z,14.47
2019-03-23T13:59:49.830Z,14.45
2019-03-23T14:02:18.217Z,14.45
2019-03-23T14:04:46.577Z,14.53
2019-03-23T14:07:15.140Z,14.99
2019-03-23T14:09:43.568Z,14.90
2019-03-23T14:12:11.931Z,14.81
2019-03-23T14:14:40.320Z,14.67
2019-03-23T14:17:08.667Z,14.71
2019-03-23T14:19:37.056Z,14.36
2019-03-23T14:22:05.409Z,14.45
2019-03-23T14:24:33.795Z,14.20
2019-03-23T14:27:02.150Z,14.48
2019-03-23T14:29:30.536Z,14.61
2019-03-23T14:31:58.902Z,14.88
2019-03-23T14:34:27.287Z,15.29
2019-03-23T14:36:55.643Z,15.40
2019-03-23T14:39:24.095Z,15.09
2019-03-23T14:41:52.452Z,15.10
2019-03-23T14:44:20.845Z,15.60
2019-03-23T14:46:49.197Z,15.76
2019-03-23T14:49:17.656Z,15.56
2019-03-23T14:51:46.007Z,15.68
2019-03-23T14:54:14.398Z,15.74
2019-03-23T14:56:42.759Z,15.56
2019-03-23T14:59:11.147Z,15.77
2019-03-23T15:01:39.572Z,15.94
2019-03-23T15:04:07.965Z,15.21
2019-03-23T15:06:36.319Z,15.78
2019-03-23T15:09:06.378Z,15.56
2019-03-23T15:11:34.736Z,15.97
2019-03-23T15:14:03.129Z,15.98
2019-03-23T15:16:31.481Z,15.58
2019-03-23T15:18:59.871Z,16.07
2019-03-23T15:21:28.227Z,15.82
2019-03-23T15:23:56.580Z,15.70
2019-03-23T15:26:24.969Z,15.35
2019-03-23T15:28:53.329Z,15.37
2019-03-23T15:31:21.704Z,15.80
2019-03-23T15:33:50.066Z,15.42
2019-03-23T15:36:18.515Z,15.47
2019-03-23T15:38:46.875Z,15.63
2019-03-23T15:41:15.271Z,15.98
2019-03-23T15:43:43.622Z,15.76
2019-03-23T15:46:12.010Z,15.52
2019-03-23T15:48:40.369Z,16.04
2019-03-23T15:51:08.764Z,15.60
2019-03-23T15:53:37.117Z,15.44
2019-03-23T15:56:05.647Z,15.94
2019-03-23T15:58:34.007Z,15.87
2019-03-23T16:01:02.460Z,15.70
2019-03-23T16:03:30.816Z,15.79
2019-03-23T16:05:59.201Z,15.69
2019-03-23T16:08:27.559Z,15.85
2019-03-23T16:10:55.950Z,15.97
2019-03-23T16:13:24.301Z,15.85
2019-03-23T16:15:52.758Z,15.67
2019-03-23T16:18:21.492Z,15.78
2019-03-23T16:20:49.882Z,15.64
2019-03-23T16:23:18.243Z,15.72
2019-03-23T16:25:46.675Z,15.27
2019-03-23T16:28:15.469Z,15.21
2019-03-23T16:30:43.824Z,15.57
2019-03-23T16:33:12.331Z,15.38
2019-03-23T16:35:40.683Z,15.43
2019-03-23T16:38:09.214Z,15.25
2019-03-23T16:40:37.926Z,14.97
2019-03-23T16:43:06.451Z,15.36
2019-03-23T16:45:34.830Z,14.94
2019-03-23T16:48:03.222Z,15.19
2019-03-23T16:50:31.599Z,15.31
2019-03-23T16:53:00.415Z,15.05
2019-03-23T16:55:28.770Z,14.89
2019-03-23T16:57:57.326Z,14.55
2019-03-23T17:00:36.123Z,14.63
2019-03-23T17:03:05.141Z,14.75
2019-03-23T17:05:33.569Z,14.94
2019-03-23T17:08:01.962Z,14.90
2019-03-23T17:10:30.320Z,14.56
2019-03-23T17:12:58.708Z,14.50
2019-03-23T17:15:27.064Z,14.34
2019-03-23T17:17:56.313Z,14.23
2019-03-23T17:20:26.424Z,14.20
2019-03-23T17:22:54.811Z,14.13
2019-03-23T17:25:23.163Z,14.07
2019-03-23T17:27:51.550Z,13.84
2019-03-23T17:30:23.097Z,13.77
2019-03-23T17:32:51.489Z,13.58
2019-03-23T17:35:20.988Z,13.48
2019-03-23T17:37:49.902Z,13.24
2019-03-23T17:40:18.587Z,13.02
2019-03-23T17:42:46.970Z,12.88
2019-03-23T17:45:15.566Z,12.82
2019-03-23T17:47:44.439Z,12.78
2019-03-23T17:50:13.108Z,12.67
2019-03-23T17:52:42.180Z,12.44
2019-03-23T17:55:10.995Z,12.32
2019-03-23T17:57:39.416Z,12.19
2019-03-23T18:00:09.723Z,12.03
2019-03-23T18:02:38.239Z,12.01
2019-03-23T18:05:08.513Z,11.87
2019-03-23T18:07:36.936Z,11.91
2019-03-23T18:10:09.149Z,11.80
2019-03-23T18:12:37.572Z,11.83
2019-03-23T18:15:09.671Z,11.59
2019-03-23T18:17:38.090Z,11.64
2019-03-23T18:20:07.416Z,11.49
2019-03-23T18:22:35.836Z,11.56
2019-03-23T18:25:05.326Z,11.49
2019-03-23T18:27:33.686Z,11.46
2019-03-23T18:30:02.347Z,11.32
2019-03-23T18:32:31.249Z,11.43
2019-03-23T18:34:59.808Z,11.40
2019-03-23T18:37:28.162Z,11.12
2019-03-23T18:39:56.548Z,11.13
2019-03-23T18:42:24.976Z,11.07
2019-03-23T18:44:53.443Z,10.99
2019-03-23T18:47:21.805Z,11.07
2019-03-23T18:49:50.191Z,11.08
2019-03-23T18:52:18.554Z,10.98
2019-03-23T18:54:46.954Z,10.90
2019-03-23T18:57:15.519Z,10.95
2019-03-23T18:59:47.563Z,10.95
2019-03-23T19:02:20.375Z,10.95
2019-03-23T19:04:50.649Z,10.91
2019-03-23T19:07:21.018Z,10.92
2019-03-23T19:09:50.610Z,10.91
2019-03-23T19:12:20.245Z,10.79
2019-03-23T19:14:48.663Z,10.83
2019-03-23T19:17:17.047Z,10.74
2019-03-23T19:19:45.400Z,10.64
2019-03-23T19:22:13.791Z,10.46
2019-03-23T19:24:42.147Z,10.61
2019-03-23T19:27:10.535Z,10.53
2019-03-23T19:29:38.896Z,10.52
2019-03-23T19:32:07.351Z,10.44
2019-03-23T19:34:35.717Z,10.47
2019-03-23T19:37:04.170Z,10.35
2019-03-23T19:39:32.531Z,10.14
2019-03-23T19:42:00.921Z,10.22
2019-03-23T19:44:29.291Z,10.15
2019-03-23T19:46:57.663Z,10.27
2019-03-23T19:49:26.010Z,10.37
2019-03-23T19:51:54.400Z,10.23
2019-03-23T19:54:22.820Z,10.20
2019-03-23T19:56:51.275Z,10.42
2019-03-23T19:59:19.628Z,10.16
2019-03-23T20:01:48.028Z,10.05
2019-03-23T20:04:16.381Z,9.84
2019-03-23T20:06:44.774Z,9.84
2019-03-23T20:09:13.125Z,9.70
2019-03-23T20:11:41.472Z,9.88
2019-03-23T20:14:09.859Z,9.86
2019-03-23T20:16:38.222Z,9.82
2019-03-23T20:19:06.671Z,9.93
2019-03-23T20:21:35.028Z,9.91
2019-03-23T20:24:03.480Z,9.83
2019-03-23T20:26:31.837Z,9.62
2019-03-23T20:29:00.220Z,9.53
2019-03-23T20:31:28.576Z,9.51
2019-03-23T20:33:56.959Z,9.66
2019-03-23T20:36:25.316Z,9.43
2019-03-23T20:38:57.551Z,9.48
2019-03-23T20:41:27.461Z,9.33
2019-03-23T20:43:56.093Z,9.25
2019-03-23T20:46:25.539Z,9.50
2019-03-23T20:48:53.997Z,9.28
2019-03-23T20:51:22.354Z,9.48
2019-03-23T20:53:50.950Z,9.40
2019-03-23T20:56:19.301Z,9.48
2019-03-23T20:58:47.688Z,9.35
2019-03-23T21:01:16.037Z,9.38
2019-03-23T21:03:46.062Z,9.34
2019-03-23T21:06:14.766Z,9.39
2019-03-23T21:08:44.923Z,9.35
2019-03-23T21:11:13.973Z,9.37
2019-03-23T21:13:42.381Z,9.30
2019-03-23T21:16:11.289Z,9.27
2019-03-23T21:18:39.815Z,9.29
2019-03-23T21:21:08.619Z,9.30
2019-03-23T21:23:37.973Z,9.07
2019-03-23T21:26:06.394Z,8.82
2019-03-23T21:28:34.812Z,8.65
2019-03-23T21:31:03.435Z,8.67
2019-03-23T21:33:38.473Z,8.81
2019-03-23T21:36:02.138Z,8.69
2019-03-23T21:38:30.737Z,8.63
2019-03-23T21:40:59.391Z,8.49
2019-03-23T21:43:27.976Z,8.30
2019-03-23T21:45:56.819Z,8.13
2019-03-23T21:48:25.350Z,8.30
2019-03-23T21:50:53.872Z,8.53
2019-03-23T21:53:22.262Z,8.32
2019-03-23T21:55:51.092Z,8.40
2019-03-23T21:58:19.789Z,8.51
2019-03-23T22:00:48.740Z,8.33
2019-03-23T22:03:17.479Z,8.32
2019-03-23T22:05:45.867Z,7.95
2019-03-23T22:08:15.524Z,7.84
2019-03-23T22:10:44.027Z,7.93
2019-03-23T22:13:12.620Z,7.95
2019-03-23T22:15:41.450Z,8.16
2019-03-23T22:18:10.177Z,7.78
2019-03-23T22:20:38.574Z,7.83
2019-03-23T22:23:07.170Z,7.84
2019-03-23T22:25:35.791Z,7.66
2019-03-23T22:28:06.431Z,7.80
2019-03-23T22:30:34.811Z,7.97
2019-03-23T22:33:03.165Z,7.64
2019-03-23T22:35:31.545Z,7.68
2019-03-23T22:37:59.966Z,7.26
2019-03-23T22:40:28.440Z,7.29
2019-03-23T22:42:56.853Z,7.42
2019-03-23T22:45:25.208Z,7.45
2019-03-23T22:47:53.594Z,7.55
2019-03-23T22:50:22.020Z,7.70
2019-03-23T22:52:50.411Z,7.78
2019-03-23T22:55:18.770Z,7.69
2019-03-23T22:57:47.160Z,7.58
2019-03-23T23:00:22.526Z,7.46
2019-03-23T23:02:50.919Z,7.50
2019-03-23T23:05:19.585Z,7.45
2019-03-23T23:07:48.118Z,7.35
2019-03-23T23:10:16.713Z,7.31
2019-03-23T23:12:48.504Z,7.42
2019-03-23T23:15:17.036Z,7.31
2019-03-23T23:17:45.642Z,7.09
2019-03-23T23:20:14.059Z,7.08
2019-03-23T23:22:42.685Z,7.11
2019-03-23T23:25:11.658Z,6.86
2019-03-23T23:27:42.879Z,6.87
2019-03-23T23:30:12.129Z,6.99
2019-03-23T23:32:41.248Z,6.90
2019-03-23T23:35:10.509Z,6.83
2019-03-23T23:37:39.607Z,6.81
2019-03-23T23:40:08.438Z,6.89
2019-03-23T23:42:37.253Z,6.63
2019-03-23T23:45:16.006Z,6.81
2019-03-23T23:47:47.591Z,6.88
2019-03-23T23:50:16.116Z,6.81
2019-03-23T23:52:44.746Z,6.89
2019-03-23T23:55:13.457Z,7.07
2019-03-23T23:57:42.261Z,6.88
